EST,Max TemperatureF,Mean TemperatureF,Min TemperatureF,Max Dew PointF,MeanDew PointF,Min DewpointF,Max Humidity, Mean Humidity, Min Humidity, Max Sea Level PressureIn, Mean Sea Level PressureIn, Min Sea Level PressureIn, Max VisibilityMiles, Mean VisibilityMiles, Min VisibilityMiles, Max Wind SpeedMPH, Mean Wind SpeedMPH, Max Gust SpeedMPH,PrecipitationIn, CloudCover, Events, WindDirDegrees
2013-11-1,73,67,60,66,64,59,100,87,73,29.90,29.75,29.68,10,7,1,22,13,29,1.23,8,Rain,220
2013-11-2,71,61,50,58,50,39,100,67,33,29.94,29.78,29.71,10,9,4,15,4,23,T,5,Fog,262
2013-11-3,63,52,40,39,37,34,86,60,34,30.37,30.16,29.96,10,10,7,15,4,21,0.00,0,,36
2013-11-4,55,45,35,35,31,29,89,62,35,30.56,30.50,30.39,10,10,10,16,7,22,0.00,3,,43
2013-11-5,57,47,37,48,40,31,83,71,59,30.55,30.50,30.43,10,10,10,12,5,16,0.00,6,,31
2013-11-6,71,58,44,57,49,42,93,72,51,30.42,30.30,30.12,10,10,10,9,4,18,0.00,4,,78
2013-11-7,70,58,46,61,53,30,100,74,47,30.11,30.02,29.93,10,7,0,14,5,23,0.03,6,Fog-Rain,259
2013-11-8,58,46,33,31,27,22,82,54,26,30.34,30.25,30.13,10,10,10,13,3,21,0.00,0,,319
2013-11-9,59,45,30,33,30,27,92,61,30,30.39,30.30,30.20,10,10,10,15,4,20,0.00,4,,227
2013-11-10,72,55,38,38,33,25,79,52,24,30.25,30.16,30.07,10,10,10,17,5,25,0.00,1,,261
2013-11-11,59,46,32,32,28,25,82,55,28,30.36,30.26,30.15,10,10,10,9,2,13,0.00,1,,153
2013-11-12,61,48,35,36,30,14,82,58,33,30.43,30.19,30.06,10,10,7,20,7,29,0.01,5,Rain-Snow,359
2013-11-13,45,36,26,20,16,13,69,49,28,30.55,30.49,30.43,10,10,10,16,3,24,0.00,0,,360
2013-11-14,57,41,25,26,22,20,84,54,24,30.48,30.41,30.35,10,10,10,15,5,20,0.00,0,,225
2013-11-15,60,45,30,47,34,22,80,58,36,30.37,30.30,30.23,10,10,9,9,2,12,T,6,Rain,215
2013-11-16,69,60,50,55,51,45,100,82,63,30.28,30.24,30.22,10,7,0,9,3,12,T,6,,33
2013-11-17,71,62,52,65,57,51,100,83,66,30.22,30.10,29.91,10,5,0,18,5,23,0.08,7,Fog-Rain,168
2013-11-18,75,65,54,66,52,27,93,60,27,29.97,29.87,29.81,10,10,7,18,7,25,0.06,4,,265
2013-11-19,56,49,41,28,26,25,55,43,30,30.32,30.15,29.98,10,10,10,14,7,21,0.00,3,,36
2013-11-20,52,45,37,36,30,25,76,60,44,30.45,30.40,30.34,10,10,10,20,8,24,0.00,5,,43
2013-11-21,62,52,41,46,40,36,79,67,55,30.52,30.45,30.40,10,10,10,12,4,14,0.00,6,,27
2013-11-22,71,59,47,59,52,43,90,78,66,30.39,30.24,30.10,10,10,7,17,5,23,0.03,6,Rain,239
2013-11-23,61,52,43,59,40,17,97,62,27,30.18,30.10,30.05,10,9,5,10,4,17,0.01,6,,305
2013-11-24,43,33,23,19,7,-1,50,36,21,30.56,30.41,30.19,10,10,10,15,7,25,0.00,1,,354
2013-11-25,43,31,18,15,9,5,74,47,20,30.60,30.51,30.40,10,10,10,10,2,16,0.00,4,,166
2013-11-26,66,52,37,64,40,13,96,66,35,30.37,29.94,29.58,10,5,0,18,8,26,0.83,8,Rain,88
2013-11-27,50,40,30,45,36,15,93,71,49,30.17,29.69,29.51,10,6,0,15,6,28,0.71,7,Rain,315
2013-11-28,45,34,23,23,17,13,75,53,31,30.50,30.38,30.20,10,10,10,13,2,21,0.00,0,,317
2013-11-29,50,37,24,26,23,21,92,63,34,30.65,30.56,30.48,10,10,10,14,4,20,0.00,1,,45
2013-11-30,48,38,27,30,26,21,85,67,49,30.66,30.55,30.39,10,10,8,12,4,16,0.00,2,,34